createdAt,value
2017-10-05T00:00:37.399Z,10.90
2017-10-05T00:03:05.609Z,10.90
2017-10-05T00:05:33.059Z,10.90
2017-10-05T00:08:00.519Z,11.00
2017-10-05T00:10:28.729Z,11.00
2017-10-05T00:12:56.179Z,11.00
2017-10-05T00:15:23.623Z,11.00
2017-10-05T00:17:51.085Z,11.20
2017-10-05T00:20:18.528Z,11.30
2017-10-05T00:22:45.974Z,11.60
2017-10-05T00:25:13.423Z,12.00
2017-10-05T00:27:40.863Z,12.30
2017-10-05T00:30:08.311Z,12.40
2017-10-05T00:32:36.524Z,12.40
2017-10-05T00:35:03.973Z,12.40
2017-10-05T00:37:31.421Z,12.50
2017-10-05T00:39:58.865Z,12.60
2017-10-05T00:44:59.131Z,12.70
2017-10-05T00:47:26.576Z,12.60
2017-10-05T00:49:54.033Z,12.60
2017-10-05T00:52:21.472Z,12.70
2017-10-05T00:54:48.915Z,12.70
2017-10-05T00:57:17.127Z,12.60
2017-10-05T00:59:44.571Z,12.60
2017-10-05T01:02:12.784Z,12.80
2017-10-05T01:04:40.226Z,12.80
2017-10-05T01:07:07.668Z,12.70
2017-10-05T01:09:35.112Z,12.70
2017-10-05T01:12:02.566Z,12.70
2017-10-05T01:14:30.012Z,12.80
2017-10-05T01:16:57.465Z,12.80
2017-10-05T01:19:24.896Z,12.90
2017-10-05T01:21:53.111Z,12.90
2017-10-05T01:24:21.324Z,12.90
2017-10-05T01:26:48.776Z,12.80
2017-10-05T01:29:16.219Z,12.90
2017-10-05T01:31:43.672Z,12.80
2017-10-05T01:34:11.111Z,12.90
2017-10-05T01:36:38.565Z,12.90
2017-10-05T01:39:06.018Z,12.90
2017-10-05T01:41:33.491Z,12.90
2017-10-05T01:44:00.939Z,13.00
2017-10-05T01:46:29.138Z,13.00
2017-10-05T01:48:56.594Z,13.00
2017-10-05T01:51:24.366Z,13.00
2017-10-05T01:53:51.803Z,13.00
2017-10-05T01:56:19.250Z,13.00
2017-10-05T01:58:46.703Z,13.00
2017-10-05T02:01:14.147Z,12.90
2017-10-05T02:03:41.607Z,12.90
2017-10-05T02:06:09.048Z,12.80
2017-10-05T02:08:36.487Z,12.70
2017-10-05T02:11:04.703Z,12.80
2017-10-05T02:13:32.147Z,12.70
2017-10-05T02:15:59.578Z,12.80
2017-10-05T02:18:27.026Z,12.70
2017-10-05T02:20:55.231Z,12.70
2017-10-05T02:23:22.687Z,12.70
2017-10-05T02:25:50.131Z,12.60
2017-10-05T02:28:17.580Z,12.60
2017-10-05T02:30:45.011Z,12.60
2017-10-05T02:33:13.241Z,12.50
2017-10-05T02:35:40.684Z,12.50
2017-10-05T02:38:08.119Z,12.60
2017-10-05T02:40:35.563Z,12.60
2017-10-05T02:43:03.771Z,12.60
2017-10-05T02:45:31.232Z,12.60
2017-10-05T02:47:58.677Z,12.60
2017-10-05T02:50:26.111Z,12.60
2017-10-05T02:52:54.323Z,12.60
2017-10-05T02:55:21.776Z,12.60
2017-10-05T02:57:49.984Z,12.60
2017-10-05T03:00:17.438Z,12.50
2017-10-05T03:02:44.998Z,12.60
2017-10-05T03:05:12.434Z,12.60
2017-10-05T03:07:39.885Z,12.60
2017-10-05T03:10:07.326Z,12.70
2017-10-05T03:12:34.767Z,12.70
2017-10-05T03:15:02.215Z,12.50
2017-10-05T03:17:30.428Z,12.60
2017-10-05T03:19:57.887Z,12.60
2017-10-05T03:22:25.338Z,12.70
2017-10-05T03:24:52.795Z,12.60
2017-10-05T03:27:20.234Z,12.60
2017-10-05T03:29:47.691Z,12.70
2017-10-05T03:32:15.135Z,12.60
2017-10-05T03:34:42.578Z,12.70
2017-10-05T03:37:10.790Z,12.60
2017-10-05T03:39:38.242Z,12.60
2017-10-05T03:42:05.688Z,12.70
2017-10-05T03:44:33.126Z,12.60
2017-10-05T03:47:00.571Z,12.60
2017-10-05T03:49:28.780Z,12.50
2017-10-05T03:51:56.235Z,12.50
2017-10-05T03:54:23.688Z,12.50
2017-10-05T03:56:51.152Z,12.40
2017-10-05T03:59:18.607Z,12.40
2017-10-05T04:01:46.063Z,12.40
2017-10-05T04:04:13.519Z,12.50
2017-10-05T04:06:40.971Z,12.60
2017-10-05T04:09:08.437Z,12.70
2017-10-05T04:11:35.879Z,12.70
2017-10-05T04:14:03.388Z,12.70
2017-10-05T04:16:30.835Z,12.70
2017-10-05T04:18:58.283Z,12.60
2017-10-05T04:21:25.727Z,12.70
2017-10-05T04:23:53.171Z,12.70
2017-10-05T04:26:20.619Z,12.70
2017-10-05T04:28:48.071Z,12.60
2017-10-05T04:31:15.510Z,12.70
2017-10-05T04:33:42.951Z,12.70
2017-10-05T04:36:11.160Z,12.60
2017-10-05T04:38:38.617Z,12.60
2017-10-05T04:41:06.054Z,12.60
2017-10-05T04:43:33.496Z,12.50
2017-10-05T04:46:01.708Z,12.30
2017-10-05T04:48:29.160Z,12.30
2017-10-05T04:50:56.621Z,12.30
2017-10-05T04:53:24.069Z,12.20
2017-10-05T04:55:51.506Z,12.30
2017-10-05T04:58:18.980Z,12.30
2017-10-05T05:00:46.410Z,12.10
2017-10-05T05:03:14.623Z,12.50
2017-10-05T05:05:42.067Z,12.50
2017-10-05T05:08:09.521Z,12.60
2017-10-05T05:10:36.966Z,12.60
2017-10-05T05:13:04.403Z,12.60
2017-10-05T05:15:32.687Z,12.70
2017-10-05T05:18:00.127Z,12.70
2017-10-05T05:20:28.364Z,12.70
2017-10-05T05:22:55.808Z,12.70
2017-10-05T05:25:23.255Z,12.80
2017-10-05T05:27:50.695Z,12.70
2017-10-05T05:30:18.134Z,12.90
2017-10-05T05:32:46.338Z,12.90
2017-10-05T05:35:13.792Z,12.90
2017-10-05T05:37:41.231Z,12.90
2017-10-05T05:40:08.678Z,12.90
2017-10-05T05:42:36.891Z,12.90
2017-10-05T05:45:04.339Z,12.90
2017-10-05T05:47:31.775Z,12.90
2017-10-05T05:49:59.219Z,13.00
2017-10-05T05:52:27.423Z,13.00
2017-10-05T05:54:54.870Z,13.00
2017-10-05T05:57:22.311Z,12.90
2017-10-05T05:59:49.754Z,12.90
2017-10-05T06:02:17.967Z,13.00
2017-10-05T06:04:45.424Z,13.00
2017-10-05T06:07:12.858Z,12.90
2017-10-05T06:09:40.332Z,13.10
2017-10-05T06:12:07.775Z,13.00
2017-10-05T06:14:35.212Z,13.10
2017-10-05T06:17:03.414Z,13.20
2017-10-05T06:19:30.871Z,13.20
2017-10-05T06:21:58.326Z,13.10
2017-10-05T06:24:25.783Z,13.20
2017-10-05T06:26:53.239Z,13.20
2017-10-05T06:29:21.280Z,13.30
2017-10-05T06:31:49.661Z,13.40
2017-10-05T06:34:18.103Z,13.40
2017-10-05T06:36:45.543Z,13.40
2017-10-05T06:39:12.991Z,13.40
2017-10-05T06:41:40.439Z,13.40
2017-10-05T06:44:07.891Z,13.50
2017-10-05T06:46:35.347Z,13.50
2017-10-05T06:49:03.556Z,13.40
2017-10-05T06:51:31.012Z,13.40
2017-10-05T06:53:58.448Z,13.60
2017-10-05T06:56:25.902Z,13.60
2017-10-05T06:58:53.343Z,13.70
2017-10-05T07:01:20.803Z,13.90
2017-10-05T07:03:48.265Z,13.90
2017-10-05T07:06:15.712Z,13.90
2017-10-05T07:08:43.155Z,14.00
2017-10-05T07:11:10.604Z,14.10
2017-10-05T07:13:38.049Z,14.10
2017-10-05T07:16:06.268Z,14.30
2017-10-05T07:18:33.715Z,14.30
2017-10-05T07:21:01.190Z,14.40
2017-10-05T07:23:28.635Z,14.40
2017-10-05T07:25:56.083Z,14.60
2017-10-05T07:28:23.536Z,14.70
2017-10-05T07:30:50.981Z,14.90
2017-10-05T07:33:18.424Z,15.00
2017-10-05T07:35:46.636Z,15.30
2017-10-05T07:38:14.083Z,15.30
2017-10-05T07:40:41.543Z,15.50
2017-10-05T07:43:09.049Z,15.60
2017-10-05T07:45:36.483Z,16.10
2017-10-05T07:48:03.931Z,16.20
2017-10-05T07:50:31.375Z,16.40
2017-10-05T07:52:58.831Z,16.50
2017-10-05T07:55:26.281Z,16.50
2017-10-05T07:57:53.728Z,17.30
2017-10-05T08:00:21.177Z,17.60
2017-10-05T08:02:48.637Z,17.60
2017-10-05T08:05:16.059Z,17.90
2017-10-05T08:07:44.265Z,17.30
2017-10-05T08:10:11.706Z,17.30
2017-10-05T08:12:39.159Z,17.30
2017-10-05T08:15:06.596Z,17.80
2017-10-05T08:17:34.823Z,17.70
2017-10-05T08:20:02.279Z,17.70
2017-10-05T08:22:29.723Z,17.60
2017-10-05T08:24:57.179Z,17.90
2017-10-05T08:27:24.620Z,17.70
2017-10-05T08:29:52.067Z,18.40
2017-10-05T08:32:20.275Z,18.50
2017-10-05T08:34:47.720Z,18.50
2017-10-05T08:37:15.931Z,18.40
2017-10-05T08:39:43.379Z,18.40
2017-10-05T08:42:10.815Z,18.90
2017-10-05T08:44:38.263Z,18.20
2017-10-05T08:47:05.699Z,19.00
2017-10-05T08:49:33.158Z,19.50
2017-10-05T08:52:00.601Z,20.00
2017-10-05T08:54:28.819Z,18.80
2017-10-05T08:56:56.265Z,18.80
2017-10-05T08:59:23.718Z,18.80
2017-10-05T09:01:51.165Z,18.70
2017-10-05T09:04:18.598Z,18.70
2017-10-05T09:06:46.811Z,19.00
2017-10-05T09:09:14.255Z,19.10
2017-10-05T09:11:41.715Z,18.50
2017-10-05T09:14:09.167Z,19.00
2017-10-05T09:16:36.611Z,18.90
2017-10-05T09:19:04.049Z,19.10
2017-10-05T09:21:32.271Z,19.00
2017-10-05T09:23:59.722Z,18.90
2017-10-05T09:26:27.167Z,19.30
2017-10-05T09:28:54.623Z,19.50
2017-10-05T09:31:22.083Z,20.00
2017-10-05T09:33:49.539Z,20.30
2017-10-05T09:36:17.777Z,20.50
2017-10-05T09:38:45.989Z,21.20
2017-10-05T09:41:13.417Z,21.20
2017-10-05T09:43:40.858Z,21.70
2017-10-05T09:46:09.070Z,21.10
2017-10-05T09:48:36.524Z,21.10
2017-10-05T09:51:03.975Z,22.00
2017-10-05T09:53:31.420Z,21.50
2017-10-05T09:55:58.859Z,22.10
2017-10-05T09:58:27.076Z,21.70
2017-10-05T10:00:55.275Z,21.90
2017-10-05T10:03:22.718Z,21.90
2017-10-05T10:05:50.166Z,21.70
2017-10-05T10:08:17.615Z,22.60
2017-10-05T10:10:45.071Z,21.90
2017-10-05T10:13:12.528Z,22.40
2017-10-05T10:15:39.979Z,22.50
2017-10-05T10:18:07.438Z,21.60
2017-10-05T10:20:34.892Z,22.10
2017-10-05T10:23:02.331Z,22.40
2017-10-05T10:25:29.775Z,22.80
2017-10-05T10:27:57.978Z,22.30
2017-10-05T10:30:26.186Z,22.30
2017-10-05T10:32:53.642Z,22.40
2017-10-05T10:35:21.095Z,22.70
2017-10-05T10:37:48.548Z,22.80
2017-10-05T10:40:16.007Z,23.90
2017-10-05T10:42:43.451Z,24.70
2017-10-05T10:45:10.901Z,22.50
2017-10-05T10:47:38.339Z,22.70
2017-10-05T10:50:05.805Z,23.40
2017-10-05T10:52:33.252Z,23.50
2017-10-05T10:55:00.694Z,23.80
2017-10-05T10:57:28.130Z,23.30
2017-10-05T10:59:56.356Z,23.40
2017-10-05T11:02:23.787Z,23.40
2017-10-05T11:04:51.267Z,23.70
2017-10-05T11:07:18.711Z,24.00
2017-10-05T11:09:46.156Z,24.00
2017-10-05T11:12:13.675Z,23.20
2017-10-05T11:14:41.891Z,22.80
2017-10-05T11:17:09.347Z,22.80
2017-10-05T11:19:36.796Z,22.80
2017-10-05T11:22:04.235Z,23.50
2017-10-05T11:24:31.675Z,23.60
2017-10-05T11:26:59.886Z,23.90
2017-10-05T11:29:27.339Z,23.90
2017-10-05T11:31:54.786Z,23.70
2017-10-05T11:34:22.219Z,23.90
2017-10-05T11:36:49.668Z,24.50
2017-10-05T11:39:17.103Z,23.60
2017-10-05T11:41:44.559Z,24.20
2017-10-05T11:44:11.991Z,24.50
2017-10-05T11:46:39.444Z,24.20
2017-10-05T11:49:06.892Z,23.90
2017-10-05T11:51:35.268Z,24.10
2017-10-05T11:54:02.703Z,24.10
2017-10-05T11:56:30.173Z,23.50
2017-10-05T11:58:57.614Z,23.30
2017-10-05T12:01:25.052Z,23.10
2017-10-05T12:03:53.275Z,23.70
2017-10-05T12:06:20.718Z,23.70
2017-10-05T12:08:48.179Z,23.50
2017-10-05T12:11:15.628Z,23.90
2017-10-05T12:13:43.195Z,24.20
2017-10-05T12:16:10.636Z,23.90
2017-10-05T12:18:38.083Z,23.70
2017-10-05T12:21:05.529Z,23.70
2017-10-05T12:23:33.746Z,23.50
2017-10-05T12:26:01.224Z,23.50
2017-10-05T12:28:29.436Z,23.50
2017-10-05T12:30:57.638Z,22.80
2017-10-05T12:33:25.094Z,22.80
2017-10-05T12:35:52.552Z,22.50
2017-10-05T12:38:20.031Z,22.00
2017-10-05T12:40:47.471Z,22.00
2017-10-05T12:43:14.932Z,22.00
2017-10-05T12:45:42.396Z,22.10
2017-10-05T12:48:09.838Z,22.00
2017-10-05T12:50:37.298Z,21.80
2017-10-05T12:53:04.744Z,22.00
2017-10-05T12:55:32.203Z,21.70
2017-10-05T12:57:59.655Z,21.90
2017-10-05T13:00:27.095Z,22.10
2017-10-05T13:02:54.536Z,22.40
2017-10-05T13:05:22.747Z,22.00
2017-10-05T13:07:50.275Z,22.00
2017-10-05T13:10:20.288Z,21.40
2017-10-05T13:12:48.499Z,21.10
2017-10-05T13:15:15.958Z,21.10
2017-10-05T13:17:43.408Z,21.00
2017-10-05T13:20:10.888Z,20.80
2017-10-05T13:22:38.545Z,20.50
2017-10-05T13:25:06.908Z,20.60
2017-10-05T13:27:34.427Z,20.60
2017-10-05T13:30:02.660Z,20.60
2017-10-05T13:32:30.109Z,20.60
2017-10-05T13:34:57.555Z,20.50
2017-10-05T13:37:24.999Z,20.40
2017-10-05T13:39:52.451Z,20.00
2017-10-05T13:42:20.146Z,19.80
2017-10-05T13:44:47.594Z,19.40
2017-10-05T13:47:15.039Z,19.50
2017-10-05T13:49:42.488Z,19.40
2017-10-05T13:52:09.939Z,19.30
2017-10-05T13:54:37.381Z,19.10
2017-10-05T13:57:04.831Z,19.00
2017-10-05T13:59:32.273Z,18.80
2017-10-05T14:02:00.483Z,18.60
2017-10-05T14:04:27.932Z,18.60
2017-10-05T14:06:55.395Z,18.40
2017-10-05T14:09:22.847Z,18.40
2017-10-05T14:11:50.303Z,18.00
2017-10-05T14:14:17.747Z,18.00
2017-10-05T14:16:46.391Z,17.90
2017-10-05T14:19:14.675Z,17.70
2017-10-05T14:21:42.417Z,17.70
2017-10-05T14:24:10.670Z,17.50
2017-10-05T14:26:38.131Z,17.50
2017-10-05T14:29:05.570Z,17.30
2017-10-05T14:31:33.025Z,17.30
2017-10-05T14:34:00.519Z,17.40
2017-10-05T14:36:27.971Z,17.20
2017-10-05T14:38:55.423Z,17.10
2017-10-05T14:41:22.866Z,17.20
2017-10-05T14:43:50.329Z,17.00
2017-10-05T14:46:17.799Z,16.90
2017-10-05T14:48:46.080Z,16.80
2017-10-05T14:51:13.545Z,16.80
2017-10-05T14:53:40.991Z,16.70
2017-10-05T14:56:08.439Z,16.70
2017-10-05T14:58:35.906Z,16.60
2017-10-05T15:01:03.356Z,16.70
2017-10-05T15:03:30.936Z,16.60
2017-10-05T15:05:58.387Z,16.60
2017-10-05T15:08:25.823Z,16.50
2017-10-05T15:10:53.288Z,16.30
2017-10-05T15:13:20.743Z,16.00
2017-10-05T15:15:48.186Z,15.60
2017-10-05T15:18:15.635Z,15.30
2017-10-05T15:20:43.094Z,15.10
2017-10-05T15:23:10.532Z,15.00
2017-10-05T15:25:37.993Z,14.90
2017-10-05T15:28:05.434Z,14.80
2017-10-05T15:30:32.894Z,14.70
2017-10-05T15:33:00.356Z,14.60
2017-10-05T15:35:27.882Z,14.60
2017-10-05T15:37:55.384Z,14.60
2017-10-05T15:40:22.836Z,14.50
2017-10-05T15:42:50.278Z,14.40
2017-10-05T15:45:17.742Z,14.40
2017-10-05T15:47:45.200Z,14.40
2017-10-05T15:50:12.630Z,14.30
2017-10-05T15:52:40.106Z,14.30
2017-10-05T15:55:07.564Z,14.30
2017-10-05T15:57:35.003Z,14.30
2017-10-05T16:00:02.448Z,14.30
2017-10-05T16:02:30.647Z,14.20
2017-10-05T16:04:58.114Z,14.20
2017-10-05T16:07:25.560Z,14.20
2017-10-05T16:09:53.731Z,14.20
2017-10-05T16:12:21.203Z,14.20
2017-10-05T16:14:48.642Z,14.30
2017-10-05T16:17:16.339Z,14.20
2017-10-05T16:19:43.796Z,14.10
2017-10-05T16:22:11.251Z,14.00
2017-10-05T16:24:38.691Z,14.10
2017-10-05T16:27:06.898Z,14.00
2017-10-05T16:29:34.343Z,14.00
2017-10-05T16:32:01.799Z,13.90
2017-10-05T16:34:29.251Z,13.90
2017-10-05T16:36:56.707Z,13.90
2017-10-05T16:39:24.155Z,13.90
2017-10-05T16:41:51.607Z,13.80
2017-10-05T16:44:19.051Z,13.80
2017-10-05T16:46:46.525Z,13.70
2017-10-05T16:49:13.970Z,13.80
2017-10-05T16:51:41.407Z,13.80
2017-10-05T16:54:08.867Z,13.80
2017-10-05T16:56:36.317Z,13.80
2017-10-05T16:59:03.775Z,13.80
2017-10-05T17:01:31.215Z,13.80
2017-10-05T17:03:58.662Z,13.80
2017-10-05T17:06:26.875Z,13.80
2017-10-05T17:08:54.801Z,13.80
2017-10-05T17:11:22.280Z,13.70
2017-10-05T17:13:49.764Z,13.80
2017-10-05T17:16:17.350Z,13.80
2017-10-05T17:18:44.802Z,13.80
2017-10-05T17:21:12.264Z,13.80
2017-10-05T17:23:39.711Z,13.70
2017-10-05T17:26:07.162Z,13.70
2017-10-05T17:28:34.619Z,13.70
2017-10-05T17:31:02.072Z,13.80
2017-10-05T17:33:29.520Z,13.80
2017-10-05T17:35:56.967Z,13.80
2017-10-05T17:38:24.431Z,13.80
2017-10-05T17:40:51.875Z,13.70
2017-10-05T17:43:19.320Z,12.80
2017-10-05T17:45:46.778Z,12.30
2017-10-05T17:48:14.220Z,12.00
2017-10-05T17:59:53.507Z,11.80
2017-10-05T18:02:20.964Z,11.90
2017-10-05T18:04:48.446Z,11.90
2017-10-05T18:07:15.887Z,11.80
2017-10-05T18:09:43.344Z,11.90
2017-10-05T18:12:10.800Z,11.80
2017-10-05T18:14:38.255Z,11.80
2017-10-05T18:17:05.704Z,11.80
2017-10-05T18:19:33.147Z,11.70
2017-10-05T18:22:00.588Z,11.80
2017-10-05T18:24:28.032Z,11.70
2017-10-05T18:26:55.492Z,11.70
2017-10-05T18:29:22.947Z,11.70
2017-10-05T18:31:50.403Z,11.70
2017-10-05T18:34:17.858Z,11.70
2017-10-05T18:36:45.314Z,11.80
2017-10-05T18:39:12.767Z,11.70
2017-10-05T18:41:40.212Z,11.70
2017-10-05T18:44:07.662Z,11.70
2017-10-05T18:46:35.109Z,11.70
2017-10-05T18:49:02.544Z,11.70
2017-10-05T18:51:30.762Z,11.70
2017-10-05T18:53:58.235Z,11.70
2017-10-05T18:56:25.729Z,11.70
2017-10-05T18:58:54.961Z,11.70
2017-10-05T19:01:22.512Z,11.80
2017-10-05T19:03:51.902Z,11.80
2017-10-05T19:06:20.168Z,11.80
2017-10-05T19:08:47.748Z,11.70
2017-10-05T19:11:15.475Z,11.80
2017-10-05T19:13:42.943Z,11.80
2017-10-05T19:16:10.396Z,12.10
2017-10-05T19:18:37.852Z,12.10
2017-10-05T19:21:05.335Z,12.20
2017-10-05T19:23:32.872Z,12.30
2017-10-05T19:26:01.606Z,12.20
2017-10-05T19:28:29.230Z,12.10
2017-10-05T19:31:04.459Z,12.00
2017-10-05T19:33:31.934Z,12.00
2017-10-05T19:35:59.381Z,11.90
2017-10-05T19:38:26.836Z,11.70
2017-10-05T19:40:54.346Z,11.70
2017-10-05T19:43:21.792Z,11.60
2017-10-05T19:45:49.265Z,11.60
2017-10-05T19:48:16.700Z,11.60
2017-10-05T19:50:44.158Z,11.60
2017-10-05T19:53:11.614Z,11.50
2017-10-05T19:55:39.093Z,11.50
2017-10-05T19:58:07.311Z,11.30
2017-10-05T20:00:34.760Z,11.30
2017-10-05T20:03:02.220Z,11.20
2017-10-05T20:05:29.674Z,11.20
2017-10-05T20:07:57.132Z,11.10
2017-10-05T20:10:24.845Z,11.10
2017-10-05T20:12:52.290Z,11.10
2017-10-05T20:15:23.491Z,11.10
2017-10-05T20:43:09.413Z,10.50
2017-10-05T21:09:40.567Z,10.20
2017-10-05T21:12:08.807Z,10.10
2017-10-05T21:14:36.285Z,10.10
2017-10-05T21:17:03.749Z,10.10
2017-10-05T21:19:32.309Z,10.10
2017-10-05T21:21:59.784Z,10.00
2017-10-05T21:24:27.244Z,9.90
2017-10-05T21:26:55.468Z,9.70
2017-10-05T21:29:22.947Z,9.70
2017-10-05T21:31:50.404Z,9.60
2017-10-05T21:34:17.868Z,9.50
2017-10-05T21:36:45.337Z,9.60
2017-10-05T21:39:13.565Z,9.70
2017-10-05T21:41:41.018Z,9.70
2017-10-05T21:44:08.478Z,9.70
2017-10-05T21:46:36.685Z,9.50
2017-10-05T21:49:04.157Z,9.50
2017-10-05T21:51:31.602Z,9.60
2017-10-05T21:53:59.848Z,9.60
2017-10-05T21:56:27.714Z,9.60
2017-10-05T21:58:55.233Z,9.60
2017-10-05T22:01:23.450Z,9.50
2017-10-05T22:03:50.917Z,9.50
2017-10-05T22:06:18.373Z,9.40
2017-10-05T22:08:46.997Z,9.40
2017-10-05T22:11:15.962Z,9.30
2017-10-05T22:13:44.337Z,9.30
2017-10-05T22:16:11.793Z,9.30
2017-10-05T22:18:39.482Z,9.30
2017-10-05T22:21:08.279Z,9.40
2017-10-05T22:23:36.508Z,9.40
2017-10-05T22:26:03.973Z,9.40
2017-10-05T22:28:31.429Z,9.40
2017-10-05T22:30:58.889Z,9.20
2017-10-05T22:33:26.354Z,9.00
2017-10-05T22:35:54.584Z,9.00
2017-10-05T22:38:22.032Z,9.00
2017-10-05T22:40:49.553Z,9.10
2017-10-05T22:43:17.772Z,8.90
2017-10-05T22:45:45.808Z,8.90
2017-10-05T22:48:13.262Z,8.80
2017-10-05T22:50:41.493Z,8.80
2017-10-05T22:53:08.946Z,8.70
2017-10-05T22:55:36.508Z,8.70
2017-10-05T22:58:03.960Z,8.70
2017-10-05T23:00:31.519Z,8.60
2017-10-05T23:02:59.462Z,8.60
2017-10-05T23:05:26.996Z,8.70
2017-10-05T23:07:55.439Z,8.60
2017-10-05T23:10:22.877Z,8.60
2017-10-05T23:12:51.243Z,8.60
2017-10-05T23:15:18.716Z,8.60
2017-10-05T23:17:46.178Z,8.50
2017-10-05T23:20:13.628Z,8.50
2017-10-05T23:22:41.086Z,8.60
2017-10-05T23:25:08.537Z,8.60
2017-10-05T23:27:36.539Z,8.60
2017-10-05T23:30:05.293Z,8.70
2017-10-05T23:32:32.750Z,8.60
2017-10-05T23:35:00.656Z,8.70
2017-10-05T23:37:28.882Z,8.60
2017-10-05T23:39:56.350Z,8.60
2017-10-05T23:42:23.894Z,8.70
2017-10-05T23:44:52.229Z,8.70
2017-10-05T23:47:20.482Z,8.60
2017-10-05T23:49:48.742Z,8.60
2017-10-05T23:52:17.178Z,8.60
2017-10-05T23:54:46.427Z,8.60
2017-10-05T23:57:13.890Z,8.40
2017-10-05T23:59:41.700Z,8.40
